createdAt,value
2023-03-10T00:01:55.140Z,7.17
2023-03-10T00:04:23.588Z,4.60
2023-03-10T00:06:52.181Z,6.07
2023-03-10T00:09:20.746Z,5.43
2023-03-10T00:11:49.099Z,5.73
2023-03-10T00:14:17.749Z,5.33
2023-03-10T00:16:47.473Z,5.43
2023-03-10T00:19:15.791Z,5.43
2023-03-10T00:21:45.763Z,4.17
2023-03-10T00:24:14.143Z,4.60
2023-03-10T00:26:42.460Z,5.77
2023-03-10T00:29:12.668Z,5.57
2023-03-10T00:31:41.022Z,5.83
2023-03-10T00:34:11.823Z,6.77
2023-03-10T00:36:40.524Z,6.30
2023-03-10T00:39:12.021Z,5.40
2023-03-10T00:41:40.375Z,4.50
2023-03-10T00:44:09.745Z,10.80
2023-03-10T00:46:40.067Z,3.47
2023-03-10T00:49:10.216Z,3.37
2023-03-10T00:51:38.518Z,3.40
2023-03-10T00:54:06.974Z,1.93
2023-03-10T00:56:35.300Z,5.17
2023-03-10T00:59:03.695Z,3.67
2023-03-10T01:02:24.089Z,2.40
2023-03-10T01:04:53.773Z,4.67
2023-03-10T01:07:22.081Z,4.50
2023-03-10T01:09:50.583Z,3.63
2023-03-10T01:12:46.464Z,4.37
2023-03-10T01:15:15.129Z,4.80
2023-03-10T01:17:44.347Z,4.57
2023-03-10T01:20:16.877Z,5.10
2023-03-10T01:22:45.223Z,5.60
2023-03-10T01:25:16.884Z,4.00
2023-03-10T01:27:45.313Z,4.83
2023-03-10T01:30:14.816Z,3.93
2023-03-10T01:32:43.251Z,3.67
2023-03-10T01:35:13.915Z,6.80
2023-03-10T01:37:44.539Z,5.03
2023-03-10T01:40:16.498Z,3.43
2023-03-10T01:42:44.874Z,2.90
2023-03-10T01:45:46.289Z,4.13
2023-03-10T01:48:17.863Z,4.97
2023-03-10T01:50:48.623Z,3.50
2023-03-10T01:53:17.917Z,4.90
2023-03-10T01:55:49.919Z,4.27
2023-03-10T01:58:19.498Z,4.17
2023-03-10T02:00:47.855Z,4.40
2023-03-10T02:03:18.774Z,7.00
2023-03-10T02:05:51.263Z,3.50
2023-03-10T02:08:19.935Z,3.80
2023-03-10T02:10:48.791Z,2.40
2023-03-10T02:13:17.832Z,4.30
2023-03-10T02:15:47.494Z,4.40
2023-03-10T02:18:19.219Z,3.70
2023-03-10T02:20:53.916Z,6.47
2023-03-10T02:23:41.046Z,6.23
2023-03-10T02:26:16.304Z,6.13
2023-03-10T02:28:46.531Z,6.50
2023-03-10T02:31:15.285Z,7.33
2023-03-10T02:33:44.885Z,6.50
2023-03-10T02:36:15.323Z,4.13
2023-03-10T02:38:43.889Z,7.40
2023-03-10T02:41:18.513Z,4.83
2023-03-10T02:43:48.924Z,6.60
2023-03-10T02:46:24.125Z,6.87
2023-03-10T02:48:52.645Z,9.10
2023-03-10T02:51:29.960Z,7.80
2023-03-10T02:54:01.485Z,7.10
2023-03-10T02:56:31.155Z,8.73
2023-03-10T02:59:01.600Z,8.23
2023-03-10T03:01:30.854Z,7.63
2023-03-10T03:04:00.943Z,6.80
2023-03-10T03:06:30.040Z,7.20
2023-03-10T03:08:58.629Z,6.43
2023-03-10T03:11:29.124Z,13.10
2023-03-10T03:13:57.634Z,7.73
2023-03-10T03:16:28.120Z,7.90
2023-03-10T03:19:01.176Z,10.40
2023-03-10T03:21:30.833Z,6.30
2023-03-10T03:24:00.203Z,6.87
2023-03-10T03:26:28.633Z,6.83
2023-03-10T03:29:02.578Z,7.47
2023-03-10T03:31:36.064Z,5.27
2023-03-10T03:34:15.711Z,6.07
2023-03-10T03:36:45.548Z,9.00
2023-03-10T03:39:17.519Z,7.33
2023-03-10T03:41:53.345Z,6.30
2023-03-10T03:44:22.164Z,9.30
2023-03-10T03:47:00.596Z,6.13
2023-03-10T03:49:29.516Z,5.87
2023-03-10T03:51:58.233Z,4.77
2023-03-10T03:54:26.681Z,5.53
2023-03-10T03:57:23.608Z,8.97
2023-03-10T04:04:24.626Z,3.40
2023-03-10T04:06:54.143Z,7.43
2023-03-10T04:10:43.171Z,5.13
2023-03-10T04:22:15.499Z,6.30
2023-03-10T04:29:18.954Z,2.80
2023-03-10T04:32:38.470Z,2.63
2023-03-10T04:35:09.755Z,4.97
2023-03-10T04:37:39.817Z,4.30
2023-03-10T04:40:11.600Z,3.60
2023-03-10T04:42:40.960Z,4.83
2023-03-10T04:45:10.717Z,2.10
2023-03-10T04:48:57.239Z,2.60
2023-03-10T04:51:26.137Z,5.43
2023-03-10T04:54:00.377Z,8.30
2023-03-10T04:57:13.858Z,12.10
2023-03-10T04:59:43.372Z,2.77
2023-03-10T05:02:12.096Z,7.10
2023-03-10T05:04:41.316Z,3.37
2023-03-10T05:07:11.108Z,7.37
2023-03-10T05:09:46.842Z,3.50
2023-03-10T05:12:15.721Z,5.70
2023-03-10T05:14:44.129Z,4.07
2023-03-10T05:17:13.381Z,3.90
2023-03-10T05:19:41.991Z,3.83
2023-03-10T05:22:12.546Z,3.67
2023-03-10T05:24:41.850Z,4.03
2023-03-10T05:27:13.124Z,3.83
2023-03-10T05:29:44.482Z,3.83
2023-03-10T05:32:22.863Z,10.50
2023-03-10T05:34:55.974Z,4.10
2023-03-10T05:37:26.686Z,4.73
2023-03-10T05:39:56.350Z,4.60
2023-03-10T05:42:26.151Z,4.00
2023-03-10T05:44:54.601Z,5.63
2023-03-10T05:47:23.096Z,4.63
2023-03-10T05:49:51.527Z,6.20
2023-03-10T05:52:20.386Z,5.53
2023-03-10T05:54:48.845Z,5.60
2023-03-10T05:57:17.245Z,4.70
2023-03-10T05:59:47.190Z,7.37
2023-03-10T06:02:16.457Z,6.83
2023-03-10T06:04:45.128Z,5.07
2023-03-10T06:07:14.566Z,6.30
2023-03-10T06:09:43.269Z,7.77
2023-03-10T06:12:13.707Z,6.50
2023-03-10T06:14:42.548Z,5.30
2023-03-10T06:17:12.375Z,7.77
2023-03-10T06:19:42.137Z,4.83
2023-03-10T06:22:11.367Z,3.70
2023-03-10T06:24:39.782Z,21.00
2023-03-10T06:27:08.201Z,7.30
2023-03-10T06:29:37.224Z,4.23
2023-03-10T06:32:06.490Z,4.73
2023-03-10T06:34:36.433Z,5.53
2023-03-10T06:37:05.536Z,7.60
2023-03-10T06:39:33.981Z,5.70
2023-03-10T06:42:02.604Z,8.17
2023-03-10T06:44:31.037Z,7.00
2023-03-10T06:46:59.687Z,6.20
2023-03-10T06:49:31.209Z,8.10
2023-03-10T06:52:00.984Z,5.30
2023-03-10T06:54:30.409Z,5.47
2023-03-10T06:56:59.526Z,4.70
2023-03-10T06:59:27.915Z,4.83
2023-03-10T07:01:56.225Z,5.80
2023-03-10T07:04:24.625Z,7.50
2023-03-10T07:06:53.278Z,5.17
2023-03-10T07:09:22.990Z,6.90
2023-03-10T07:11:51.362Z,4.30
2023-03-10T07:14:19.658Z,8.07
2023-03-10T07:16:47.998Z,7.20
2023-03-10T07:19:16.461Z,6.77
2023-03-10T07:21:45.289Z,11.37
2023-03-10T07:24:13.652Z,6.80
2023-03-10T07:26:43.587Z,9.03
2023-03-10T07:29:12.151Z,7.70
2023-03-10T07:31:40.742Z,8.20
2023-03-10T07:34:09.114Z,6.00
2023-03-10T07:36:37.638Z,5.30
2023-03-10T07:39:05.970Z,14.27
2023-03-10T07:41:34.393Z,4.43
2023-03-10T07:44:04.231Z,8.20
2023-03-10T07:46:32.711Z,5.33
2023-03-10T07:49:07.261Z,3.33
2023-03-10T07:51:35.730Z,6.77
2023-03-10T07:54:04.576Z,10.47
2023-03-10T07:56:33.539Z,5.40
2023-03-10T07:59:03.353Z,7.57
2023-03-10T08:01:31.792Z,13.37
2023-03-10T08:04:00.690Z,10.20
2023-03-10T08:06:30.916Z,12.03
2023-03-10T08:08:59.829Z,5.80
2023-03-10T08:11:28.354Z,10.60
2023-03-10T08:13:57.667Z,7.90
2023-03-10T08:16:27.630Z,19.07
2023-03-10T08:18:56.169Z,4.93
2023-03-10T08:21:25.352Z,5.40
2023-03-10T08:23:53.884Z,5.77
2023-03-10T08:26:23.426Z,5.13
2023-03-10T08:28:51.816Z,5.13
2023-03-10T08:31:22.039Z,7.93
2023-03-10T08:38:27.922Z,5.53
2023-03-10T08:40:56.291Z,6.30
2023-03-10T08:43:25.688Z,7.10
2023-03-10T08:45:54.041Z,8.83
2023-03-10T08:48:22.632Z,6.07
2023-03-10T09:15:44.594Z,9.33
2023-03-10T09:55:15.500Z,8.03
2023-03-10T09:57:44.208Z,6.70
2023-03-10T10:01:05.692Z,9.60
2023-03-10T10:12:43.717Z,7.50
2023-03-10T10:39:28.476Z,9.63
2023-03-10T10:42:13.637Z,6.67
2023-03-10T10:44:42.903Z,6.70
2023-03-10T10:47:56.760Z,6.63
2023-03-10T10:50:26.272Z,5.77
2023-03-10T10:53:21.719Z,4.23
2023-03-10T10:56:02.515Z,4.40
2023-03-10T10:58:33.734Z,5.43
2023-03-10T11:01:04.276Z,10.10
2023-03-10T11:03:34.649Z,8.63
2023-03-10T11:06:04.145Z,4.80
2023-03-10T11:08:37.734Z,9.37
2023-03-10T11:11:33.750Z,6.03
2023-03-10T11:14:10.323Z,8.30
2023-03-10T11:16:47.552Z,6.83
2023-03-10T11:19:23.458Z,4.50
2023-03-10T11:21:54.819Z,7.30
2023-03-10T11:24:28.185Z,7.87
2023-03-10T11:27:01.136Z,9.03
2023-03-10T11:29:39.764Z,6.20
2023-03-10T11:32:18.877Z,6.33
2023-03-10T11:34:52.113Z,12.13
2023-03-10T11:37:29.979Z,6.00
2023-03-10T11:40:08.730Z,3.87
2023-03-10T11:42:42.832Z,5.83
2023-03-10T11:45:24.507Z,5.90
2023-03-10T11:48:01.244Z,5.97
2023-03-10T11:50:41.154Z,7.37
2023-03-10T11:53:14.905Z,4.57
2023-03-10T11:55:45.571Z,7.00
2023-03-10T11:58:27.656Z,8.20
2023-03-10T12:00:59.807Z,6.23
2023-03-10T12:03:42.451Z,6.47
2023-03-10T12:06:15.280Z,9.10
2023-03-10T12:08:43.753Z,5.17
2023-03-10T12:11:16.359Z,5.90
2023-03-10T12:13:48.027Z,5.90
2023-03-10T12:16:19.807Z,3.50
2023-03-10T12:18:48.380Z,6.57
2023-03-10T12:21:19.278Z,7.47
2023-03-10T12:23:48.800Z,6.47
2023-03-10T12:26:17.485Z,5.73
2023-03-10T12:28:47.313Z,5.43
2023-03-10T12:31:48.463Z,7.90
2023-03-10T12:34:19.206Z,8.97
2023-03-10T12:36:48.163Z,4.27
2023-03-10T12:39:32.735Z,6.17
2023-03-10T12:42:01.776Z,6.60
2023-03-10T12:44:45.477Z,6.73
2023-03-10T12:47:19.710Z,7.43
2023-03-10T12:49:51.232Z,5.60
2023-03-10T12:52:25.929Z,4.20
2023-03-10T12:55:22.189Z,8.47
2023-03-10T12:58:00.097Z,6.97
2023-03-10T13:00:41.512Z,4.93
2023-03-10T13:03:19.675Z,5.57
2023-03-10T13:06:00.370Z,4.97
2023-03-10T13:08:35.686Z,7.30
2023-03-10T13:11:04.957Z,3.80
2023-03-10T13:13:36.556Z,5.57
2023-03-10T13:16:08.475Z,8.67
2023-03-10T13:18:36.847Z,6.03
2023-03-10T13:21:06.697Z,4.00
2023-03-10T13:23:36.935Z,9.00
2023-03-10T13:26:07.990Z,10.67
2023-03-10T13:28:38.160Z,4.97
2023-03-10T13:31:19.563Z,4.20
2023-03-10T13:33:53.676Z,5.40
2023-03-10T13:36:28.644Z,5.63
2023-03-10T13:38:58.672Z,4.83
2023-03-10T13:41:27.243Z,4.70
2023-03-10T13:43:56.220Z,6.80
2023-03-10T13:46:29.018Z,5.50
2023-03-10T13:49:03.846Z,8.40
2023-03-10T13:51:34.107Z,4.23
2023-03-10T13:54:14.682Z,4.27
2023-03-10T13:56:43.724Z,6.43
2023-03-10T13:59:15.795Z,4.37
2023-03-10T14:01:51.040Z,7.60
2023-03-10T14:04:20.978Z,4.20
2023-03-10T14:07:08.367Z,4.50
2023-03-10T14:09:36.942Z,11.00
2023-03-10T14:12:05.898Z,5.97
2023-03-10T14:14:45.511Z,3.80
2023-03-10T14:17:36.589Z,3.10
2023-03-10T14:20:12.203Z,4.10
2023-03-10T14:22:43.621Z,6.37
2023-03-10T14:25:15.431Z,4.43
2023-03-10T14:27:45.962Z,7.20
2023-03-10T14:30:25.870Z,3.80
2023-03-10T14:32:56.819Z,7.03
2023-03-10T14:35:26.347Z,6.87
2023-03-10T14:37:55.247Z,4.90
2023-03-10T14:40:27.933Z,6.50
2023-03-10T14:42:59.465Z,3.43
2023-03-10T14:45:30.526Z,2.47
2023-03-10T14:48:02.875Z,3.97
2023-03-10T14:50:32.019Z,2.23
2023-03-10T14:53:00.496Z,2.20
2023-03-10T14:55:30.030Z,3.40
2023-03-10T14:58:01.400Z,2.30
2023-03-10T15:00:30.311Z,5.80
2023-03-10T15:03:00.672Z,2.97
2023-03-10T15:05:46.967Z,3.90
2023-03-10T15:08:16.627Z,2.27
2023-03-10T15:10:48.569Z,1.57
2023-03-10T15:13:18.561Z,2.10
2023-03-10T15:15:48.710Z,6.07
2023-03-10T15:18:20.414Z,2.80
2023-03-10T15:20:48.924Z,4.30
2023-03-10T15:23:19.822Z,3.10
2023-03-10T15:25:49.157Z,3.03
2023-03-10T15:28:17.549Z,1.00
2023-03-10T15:30:45.879Z,4.57
2023-03-10T15:33:14.529Z,1.40
2023-03-10T15:35:44.820Z,2.07
2023-03-10T15:38:15.847Z,2.47
2023-03-10T15:40:44.988Z,3.27
2023-03-10T15:43:13.681Z,4.17
2023-03-10T15:45:43.201Z,3.70
2023-03-10T15:48:12.234Z,2.43
2023-03-10T15:50:47.105Z,3.13
2023-03-10T15:53:16.203Z,4.23
2023-03-10T15:55:44.937Z,3.77
2023-03-10T15:58:14.971Z,3.60
2023-03-10T16:00:44.115Z,4.80
2023-03-10T16:03:17.084Z,3.07
2023-03-10T16:05:51.159Z,4.20
2023-03-10T16:08:19.944Z,5.00
2023-03-10T16:10:55.537Z,3.10
2023-03-10T16:13:25.165Z,4.00
2023-03-10T16:15:54.150Z,3.83
2023-03-10T16:18:24.702Z,6.23
2023-03-10T16:20:58.784Z,4.63
2023-03-10T16:23:30.256Z,4.17
2023-03-10T16:26:07.972Z,4.80
2023-03-10T16:28:37.580Z,4.13
2023-03-10T16:31:07.312Z,4.10
2023-03-10T16:33:36.158Z,5.10
2023-03-10T16:36:08.658Z,3.30
2023-03-10T16:38:37.753Z,5.40
2023-03-10T16:41:07.823Z,6.40
2023-03-10T16:43:38.778Z,4.40
2023-03-10T16:46:11.601Z,4.17
2023-03-10T16:48:42.994Z,6.20
2023-03-10T16:51:30.115Z,7.43
2023-03-10T16:54:00.848Z,6.80
2023-03-10T16:56:31.028Z,7.70
2023-03-10T16:59:00.141Z,6.90
2023-03-10T17:01:32.027Z,7.50
2023-03-10T17:04:01.619Z,6.23
2023-03-10T17:06:35.006Z,6.07
2023-03-10T17:09:04.841Z,5.23
2023-03-10T17:11:36.061Z,8.77
2023-03-10T17:14:07.067Z,6.50
2023-03-10T17:16:37.996Z,7.60
2023-03-10T17:19:09.045Z,6.70
2023-03-10T17:21:46.035Z,5.93
2023-03-10T17:24:16.508Z,8.23
2023-03-10T17:26:46.606Z,11.20
2023-03-10T17:29:16.636Z,19.87
2023-03-10T17:31:51.122Z,9.70
2023-03-10T17:34:21.591Z,7.57
2023-03-10T17:36:53.291Z,8.00
2023-03-10T17:39:24.610Z,9.33
2023-03-10T17:41:56.031Z,7.63
2023-03-10T17:44:28.534Z,8.93
2023-03-10T17:47:00.038Z,7.50
2023-03-10T17:49:34.121Z,13.23
2023-03-10T17:52:06.614Z,10.40
2023-03-10T17:54:36.613Z,6.60
2023-03-10T17:57:08.574Z,6.77
2023-03-10T17:59:39.564Z,7.00
2023-03-10T18:02:11.315Z,6.93
2023-03-10T18:04:46.243Z,10.03
2023-03-10T18:07:19.842Z,6.93
2023-03-10T18:09:54.306Z,6.93
2023-03-10T18:12:37.699Z,7.03
2023-03-10T18:15:10.440Z,6.87
2023-03-10T18:17:45.800Z,9.47
2023-03-10T18:20:26.372Z,6.27
2023-03-10T18:22:57.361Z,6.60
2023-03-10T18:25:27.672Z,8.23
2023-03-10T18:27:59.034Z,7.10
2023-03-10T18:30:28.283Z,5.70
2023-03-10T18:32:58.830Z,7.50
2023-03-10T18:35:28.967Z,9.30
2023-03-10T18:38:02.128Z,6.43
2023-03-10T18:40:31.958Z,10.00
2023-03-10T18:43:01.561Z,12.20
2023-03-10T18:45:31.466Z,39.83
2023-03-10T18:48:00.805Z,8.87
2023-03-10T18:50:30.303Z,11.03
2023-03-10T18:53:01.931Z,9.60
2023-03-10T18:55:31.085Z,8.53
2023-03-10T18:58:01.005Z,11.83
2023-03-10T19:00:30.895Z,15.13
2023-03-10T19:03:00.828Z,10.57
2023-03-10T19:05:31.160Z,11.07
2023-03-10T19:08:03.399Z,7.00
2023-03-10T19:10:32.915Z,8.27
2023-03-10T19:13:03.160Z,12.23
2023-03-10T19:15:35.624Z,14.53
2023-03-10T19:18:07.011Z,11.50
2023-03-10T19:20:37.398Z,10.60
2023-03-10T19:23:10.799Z,8.60
2023-03-10T19:25:44.845Z,14.90
2023-03-10T19:28:21.087Z,8.60
2023-03-10T19:30:51.865Z,6.70
2023-03-10T19:33:23.875Z,10.43
2023-03-10T19:36:05.143Z,14.67
2023-03-10T19:38:36.836Z,9.40
2023-03-10T19:41:08.163Z,9.13
2023-03-10T19:43:38.904Z,7.80
2023-03-10T19:46:11.737Z,14.93
2023-03-10T19:48:48.030Z,13.73
2023-03-10T19:51:23.371Z,15.97
2023-03-10T19:53:56.855Z,15.60
2023-03-10T19:56:28.061Z,8.67
2023-03-10T19:58:58.838Z,8.27
2023-03-10T20:01:33.786Z,11.97
2023-03-10T20:04:05.292Z,9.40
2023-03-10T20:06:35.753Z,9.60
2023-03-10T20:09:11.466Z,16.97
2023-03-10T20:11:41.771Z,11.10
2023-03-10T20:14:12.390Z,11.03
2023-03-10T20:16:42.772Z,13.30
2023-03-10T20:19:13.509Z,15.03
2023-03-10T20:21:43.639Z,11.70
2023-03-10T20:24:14.478Z,11.97
2023-03-10T20:26:43.945Z,18.23
2023-03-10T20:29:15.838Z,20.73
2023-03-10T20:31:46.563Z,19.67
2023-03-10T20:34:22.179Z,19.50
2023-03-10T20:36:54.475Z,22.90
2023-03-10T20:39:26.361Z,18.30
2023-03-10T20:41:55.693Z,19.27
2023-03-10T20:44:24.954Z,18.70
2023-03-10T20:46:54.263Z,20.83
2023-03-10T20:49:23.585Z,22.50
2023-03-10T20:51:52.958Z,26.90
2023-03-10T20:54:22.906Z,16.37
2023-03-10T20:56:55.475Z,17.43
2023-03-10T20:59:24.963Z,19.43
2023-03-10T21:02:08.606Z,21.60
2023-03-10T21:04:38.401Z,24.00
2023-03-10T21:07:08.786Z,23.80
2023-03-10T21:09:38.710Z,17.07
2023-03-10T21:12:09.739Z,19.93
2023-03-10T21:14:38.621Z,19.33
2023-03-10T21:17:09.647Z,23.97
2023-03-10T21:19:39.021Z,21.50
2023-03-10T21:22:08.075Z,16.20
2023-03-10T21:24:38.410Z,19.37
2023-03-10T21:27:12.230Z,19.67
2023-03-10T21:29:42.235Z,22.50
2023-03-10T21:32:11.519Z,19.00
2023-03-10T21:34:42.344Z,19.90
2023-03-10T21:37:12.232Z,17.80
2023-03-10T21:39:41.274Z,14.77
2023-03-10T21:42:13.073Z,13.20
2023-03-10T21:44:41.951Z,15.17
2023-03-10T21:47:10.748Z,21.57
2023-03-10T21:49:39.258Z,19.17
2023-03-10T21:52:09.417Z,25.90
2023-03-10T21:54:37.841Z,17.07
2023-03-10T21:57:07.340Z,14.93
2023-03-10T21:59:37.156Z,19.33
2023-03-10T22:02:06.174Z,16.83
2023-03-10T22:04:34.876Z,14.70
2023-03-10T22:07:04.462Z,15.27
2023-03-10T22:09:32.857Z,16.50
2023-03-10T22:12:01.200Z,19.67
2023-03-10T22:14:29.873Z,19.10
2023-03-10T22:17:00.174Z,19.10
2023-03-10T22:19:30.100Z,16.13
2023-03-10T22:21:58.923Z,14.63
2023-03-10T22:24:27.779Z,15.60
2023-03-10T22:26:59.131Z,13.20
2023-03-10T22:29:27.570Z,16.43
2023-03-10T22:31:56.412Z,17.10
2023-03-10T22:34:26.739Z,16.43
2023-03-10T22:36:55.122Z,14.90
2023-03-10T22:39:24.191Z,14.20
2023-03-10T22:41:54.177Z,13.13
2023-03-10T22:44:23.008Z,12.17
2023-03-10T22:46:53.066Z,12.77
2023-03-10T22:49:22.114Z,12.97
2023-03-10T22:51:51.826Z,11.47
2023-03-10T22:54:20.466Z,14.90
2023-03-10T22:56:48.907Z,13.60
2023-03-10T22:59:17.281Z,13.70
2023-03-10T23:01:46.496Z,15.73
2023-03-10T23:04:14.938Z,13.33
2023-03-10T23:06:43.248Z,11.27
2023-03-10T23:09:13.024Z,11.67
2023-03-10T23:11:41.609Z,12.97
2023-03-10T23:14:09.895Z,14.47
2023-03-10T23:16:38.890Z,13.00
2023-03-10T23:19:08.773Z,14.67
2023-03-10T23:21:37.779Z,12.50
2023-03-10T23:24:06.997Z,15.27
2023-03-10T23:26:37.677Z,17.07
2023-03-10T23:29:06.322Z,16.87
2023-03-10T23:31:34.722Z,26.63
2023-03-10T23:34:03.121Z,15.60
2023-03-10T23:36:32.410Z,17.70
2023-03-10T23:39:01.000Z,15.30
2023-03-10T23:41:29.324Z,16.43
2023-03-10T23:43:59.056Z,19.03
2023-03-10T23:46:27.434Z,18.00
2023-03-10T23:48:55.995Z,19.07
2023-03-10T23:51:26.300Z,19.97
2023-03-10T23:53:54.638Z,17.10
2023-03-10T23:56:23.065Z,16.27
2023-03-10T23:58:51.787Z,17.97
